createdAt,value
2018-06-05T00:02:24.423Z,19.20
2018-06-05T00:04:52.625Z,19.20
2018-06-05T00:07:20.806Z,19.20
2018-06-05T00:09:48.998Z,19.20
2018-06-05T00:14:45.126Z,19.20
2018-06-05T00:17:13.332Z,19.10
2018-06-05T00:19:41.558Z,19.10
2018-06-05T00:22:09.765Z,19.10
2018-06-05T00:24:37.950Z,19.10
2018-06-05T00:27:06.222Z,18.90
2018-06-05T00:29:34.823Z,18.80
2018-06-05T00:32:03.023Z,18.70
2018-06-05T00:34:31.211Z,18.70
2018-06-05T00:36:59.429Z,18.60
2018-06-05T00:41:56.105Z,18.40
2018-06-05T00:44:24.304Z,18.30
2018-06-05T00:46:52.518Z,18.30
2018-06-05T00:49:20.931Z,18.20
2018-06-05T00:52:00.592Z,18.20
2018-06-05T00:54:28.784Z,18.10
2018-06-05T00:56:56.995Z,18.10
2018-06-05T00:59:25.190Z,18.10
2018-06-05T01:01:53.394Z,18.10
2018-06-05T01:04:21.605Z,18.20
2018-06-05T01:06:49.801Z,18.20
2018-06-05T01:09:17.998Z,18.30
2018-06-05T01:11:46.165Z,18.30
2018-06-05T01:14:14.360Z,18.20
2018-06-05T01:16:42.658Z,18.20
2018-06-05T01:19:10.872Z,18.20
2018-06-05T01:21:39.074Z,18.10
2018-06-05T01:24:07.274Z,17.90
2018-06-05T01:26:35.482Z,17.80
2018-06-05T01:31:31.642Z,17.60
2018-06-05T01:33:59.848Z,17.60
2018-06-05T01:36:28.045Z,17.60
2018-06-05T01:38:56.264Z,17.60
2018-06-05T01:41:24.479Z,17.50
2018-06-05T01:43:52.667Z,17.50
2018-06-05T01:46:21.393Z,17.50
2018-06-05T01:48:49.596Z,17.50
2018-06-05T01:51:17.792Z,17.40
2018-06-05T01:53:46.038Z,17.40
2018-06-05T01:56:14.223Z,17.40
2018-06-05T01:58:42.428Z,17.30
2018-06-05T02:01:10.630Z,17.30
2018-06-05T02:03:38.818Z,17.20
2018-06-05T02:06:07.035Z,17.20
2018-06-05T02:08:35.218Z,17.20
2018-06-05T02:11:03.414Z,17.10
2018-06-05T02:15:59.557Z,17.10
2018-06-05T02:20:55.735Z,16.90
2018-06-05T02:23:23.960Z,16.60
2018-06-05T02:25:52.255Z,16.70
2018-06-05T02:28:20.446Z,16.60
2018-06-05T02:30:48.910Z,16.50
2018-06-05T02:35:45.064Z,16.70
2018-06-05T02:38:13.263Z,16.70
2018-06-05T02:40:41.475Z,16.60
2018-06-05T02:43:09.685Z,16.60
2018-06-05T02:48:05.828Z,16.60
2018-06-05T02:50:34.029Z,16.50
2018-06-05T02:53:02.254Z,16.50
2018-06-05T02:55:30.442Z,16.40
2018-06-05T03:00:26.594Z,16.40
2018-06-05T03:02:54.795Z,16.40
2018-06-05T03:05:23.002Z,16.50
2018-06-05T03:07:51.215Z,16.50
2018-06-05T03:10:19.432Z,16.40
2018-06-05T03:12:47.636Z,16.40
2018-06-05T03:15:15.854Z,16.30
2018-06-05T03:17:44.064Z,16.30
2018-06-05T03:20:12.314Z,16.20
2018-06-05T03:22:40.598Z,16.20
2018-06-05T03:25:09.038Z,16.60
2018-06-05T03:30:05.393Z,16.30
2018-06-05T03:32:33.780Z,16.30
2018-06-05T03:35:02.078Z,16.30
2018-06-05T03:37:30.267Z,16.30
2018-06-05T03:39:58.506Z,16.30
2018-06-05T03:42:26.862Z,16.30
2018-06-05T03:44:55.067Z,16.30
2018-06-05T03:47:23.359Z,16.40
2018-06-05T03:49:51.711Z,16.40
2018-06-05T03:52:20.149Z,16.30
2018-06-05T03:54:48.335Z,16.30
2018-06-05T03:57:16.522Z,16.40
2018-06-05T03:59:44.729Z,16.30
2018-06-05T04:02:12.931Z,16.20
2018-06-05T04:04:41.128Z,16.20
2018-06-05T04:07:09.331Z,16.20
2018-06-05T04:09:38.440Z,16.20
2018-06-05T04:12:06.659Z,16.30
2018-06-05T04:14:34.874Z,16.20
2018-06-05T04:17:03.060Z,16.40
2018-06-05T04:19:31.240Z,16.30
2018-06-05T04:21:59.434Z,16.40
2018-06-05T04:24:27.617Z,16.40
2018-06-05T04:26:55.843Z,16.40
2018-06-05T04:31:52.015Z,16.60
2018-06-05T04:34:20.196Z,16.70
2018-06-05T04:36:48.446Z,16.80
2018-06-05T04:39:16.657Z,16.80
2018-06-05T04:41:44.850Z,16.80
2018-06-05T04:44:13.051Z,16.80
2018-06-05T04:49:09.182Z,17.00
2018-06-05T04:51:37.366Z,17.20
2018-06-05T04:54:05.571Z,17.30
2018-06-05T04:56:33.761Z,17.40
2018-06-05T04:59:01.988Z,17.60
2018-06-05T05:01:30.173Z,17.60
2018-06-05T05:03:58.361Z,17.60
2018-06-05T05:06:26.591Z,17.80
2018-06-05T05:08:54.796Z,17.90
2018-06-05T05:11:23.008Z,18.00
2018-06-05T05:13:51.205Z,18.20
2018-06-05T05:16:19.439Z,18.20
2018-06-05T05:18:47.579Z,18.30
2018-06-05T05:21:15.778Z,18.30
2018-06-05T05:23:43.970Z,18.30
2018-06-05T05:26:12.180Z,18.30
2018-06-05T05:28:40.374Z,18.40
2018-06-05T05:33:36.529Z,18.30
2018-06-05T05:36:04.764Z,18.30
2018-06-05T05:38:32.967Z,18.30
2018-06-05T05:43:29.197Z,18.40
2018-06-05T05:48:25.336Z,18.50
2018-06-05T05:50:53.571Z,18.50
2018-06-05T05:53:21.780Z,18.60
2018-06-05T05:55:49.978Z,18.70
2018-06-05T05:58:18.195Z,18.90
2018-06-05T06:00:46.385Z,19.00
2018-06-05T06:03:14.599Z,19.00
2018-06-05T06:05:42.800Z,19.20
2018-06-05T06:08:10.991Z,19.30
2018-06-05T06:10:39.188Z,19.40
2018-06-05T06:13:07.395Z,19.60
2018-06-05T06:15:35.600Z,19.80
2018-06-05T06:18:04.247Z,20.10
2018-06-05T06:20:32.427Z,20.40
2018-06-05T06:27:56.543Z,20.90
2018-06-05T06:30:24.732Z,21.20
2018-06-05T06:32:52.934Z,21.40
2018-06-05T06:35:21.134Z,21.60
2018-06-05T06:37:49.344Z,21.90
2018-06-05T06:42:45.525Z,22.40
2018-06-05T06:45:13.723Z,22.40
2018-06-05T06:50:09.952Z,22.90
2018-06-05T06:52:38.134Z,22.90
2018-06-05T06:55:06.335Z,23.00
2018-06-05T06:57:34.539Z,23.20
2018-06-05T07:00:02.772Z,23.20
2018-06-05T07:02:30.997Z,23.60
2018-06-05T07:04:59.187Z,23.90
2018-06-05T07:07:27.406Z,23.90
2018-06-05T07:12:23.560Z,24.20
2018-06-05T07:17:19.711Z,24.80
2018-06-05T07:19:47.897Z,24.90
2018-06-05T07:22:16.079Z,25.00
2018-06-05T07:24:44.272Z,25.20
2018-06-05T07:27:12.450Z,24.90
2018-06-05T07:29:40.695Z,25.00
2018-06-05T07:32:08.892Z,25.10
2018-06-05T07:34:37.085Z,25.30
2018-06-05T07:37:05.292Z,25.30
2018-06-05T07:39:33.488Z,25.40
2018-06-05T07:42:01.686Z,25.40
2018-06-05T07:44:29.943Z,25.40
2018-06-05T07:46:58.150Z,25.40
2018-06-05T07:49:26.363Z,25.30
2018-06-05T07:51:54.550Z,25.30
2018-06-05T07:54:22.753Z,25.50
2018-06-05T07:56:50.959Z,25.60
2018-06-05T07:59:19.164Z,25.70
2018-06-05T08:01:47.358Z,25.90
2018-06-05T08:04:15.551Z,25.90
2018-06-05T08:06:43.763Z,26.00
2018-06-05T08:09:11.946Z,26.20
2018-06-05T08:11:40.143Z,26.30
2018-06-05T08:14:08.344Z,26.20
2018-06-05T08:16:36.535Z,26.30
2018-06-05T08:19:04.769Z,26.60
2018-06-05T08:21:32.974Z,26.60
2018-06-05T08:24:01.145Z,26.60
2018-06-05T08:26:42.610Z,26.60
2018-06-05T08:29:10.845Z,26.70
2018-06-05T08:31:39.061Z,26.70
2018-06-05T08:34:07.254Z,26.70
2018-06-05T08:36:35.468Z,26.80
2018-06-05T08:39:03.953Z,26.80
2018-06-05T08:41:32.161Z,26.80
2018-06-05T08:44:00.355Z,26.80
2018-06-05T08:46:28.560Z,26.90
2018-06-05T08:48:56.761Z,27.10
2018-06-05T08:53:52.911Z,27.60
2018-06-05T08:56:21.123Z,27.50
2018-06-05T08:58:49.374Z,27.20
2018-06-05T09:01:17.590Z,27.30
2018-06-05T09:03:45.776Z,27.20
2018-06-05T09:06:13.988Z,27.30
2018-06-05T09:08:42.177Z,27.40
2018-06-05T09:11:10.372Z,27.40
2018-06-05T09:13:38.571Z,27.30
2018-06-05T09:16:06.770Z,27.70
2018-06-05T09:18:34.980Z,27.80
2018-06-05T09:21:03.168Z,28.10
2018-06-05T09:23:31.355Z,28.30
2018-06-05T09:25:59.558Z,28.30
2018-06-05T09:30:55.851Z,28.10
2018-06-05T09:33:24.059Z,28.10
2018-06-05T09:35:52.275Z,28.20
2018-06-05T09:38:20.460Z,28.20
2018-06-05T09:40:48.671Z,28.20
2018-06-05T09:43:16.853Z,28.30
2018-06-05T09:45:45.057Z,28.50
2018-06-05T09:48:13.275Z,28.50
2018-06-05T09:50:45.094Z,28.70
2018-06-05T09:53:13.437Z,29.00
2018-06-05T09:55:41.691Z,29.10
2018-06-05T09:58:10.013Z,29.20
2018-06-05T10:00:43.574Z,29.30
2018-06-05T10:03:11.801Z,29.40
2018-06-05T10:05:40.007Z,29.40
2018-06-05T10:08:08.193Z,29.40
2018-06-05T10:10:36.416Z,29.40
2018-06-05T10:13:04.619Z,29.30
2018-06-05T10:15:32.809Z,29.40
2018-06-05T10:18:00.998Z,29.50
2018-06-05T10:20:29.213Z,29.60
2018-06-05T10:22:57.423Z,29.50
2018-06-05T10:25:25.630Z,29.50
2018-06-05T10:27:53.834Z,29.50
2018-06-05T10:30:22.034Z,29.70
2018-06-05T10:32:50.240Z,29.80
2018-06-05T10:35:18.425Z,30.10
2018-06-05T10:37:46.625Z,29.90
2018-06-05T10:40:14.856Z,30.00
2018-06-05T10:42:43.007Z,30.00
2018-06-05T10:45:11.203Z,29.90
2018-06-05T10:47:39.409Z,30.10
2018-06-05T10:50:07.627Z,30.20
2018-06-05T10:52:35.828Z,30.30
2018-06-05T10:55:04.026Z,30.30
2018-06-05T10:57:32.245Z,30.40
2018-06-05T11:00:00.450Z,30.20
2018-06-05T11:02:28.662Z,30.00
2018-06-05T11:04:56.850Z,30.00
2018-06-05T11:07:25.077Z,30.10
2018-06-05T11:09:53.302Z,30.30
2018-06-05T11:12:21.517Z,30.50
2018-06-05T11:14:49.735Z,30.40
2018-06-05T11:17:17.964Z,30.40
2018-06-05T11:19:46.157Z,30.50
2018-06-05T11:22:14.378Z,30.30
2018-06-05T11:24:42.683Z,29.90
2018-06-05T11:27:10.904Z,30.00
2018-06-05T11:32:07.077Z,30.20
2018-06-05T11:34:35.252Z,30.50
2018-06-05T11:37:03.459Z,30.30
2018-06-05T11:39:31.659Z,30.30
2018-06-05T11:41:59.866Z,30.20
2018-06-05T11:44:28.057Z,30.20
2018-06-05T11:46:56.268Z,30.20
2018-06-05T11:49:24.453Z,30.20
2018-06-05T11:51:52.656Z,30.20
2018-06-05T11:54:20.881Z,29.80
2018-06-05T11:56:49.049Z,29.80
2018-06-05T11:59:17.255Z,29.70
2018-06-05T12:01:45.542Z,29.40
2018-06-05T12:04:13.683Z,29.50
2018-06-05T12:06:41.876Z,29.50
2018-06-05T12:09:10.068Z,29.60
2018-06-05T12:11:38.271Z,29.70
2018-06-05T12:14:06.469Z,29.70
2018-06-05T12:16:34.659Z,29.30
2018-06-05T12:19:02.856Z,29.00
2018-06-05T12:21:31.041Z,28.90
2018-06-05T12:23:59.240Z,28.80
2018-06-05T12:26:27.428Z,28.90
2018-06-05T12:28:55.640Z,29.20
2018-06-05T12:31:23.821Z,29.40
2018-06-05T12:33:52.026Z,29.60
2018-06-05T12:36:20.226Z,29.50
2018-06-05T12:38:48.427Z,29.60
2018-06-05T12:41:16.628Z,29.60
2018-06-05T12:43:44.842Z,29.90
2018-06-05T12:46:13.041Z,29.90
2018-06-05T12:48:41.241Z,29.90
2018-06-05T12:53:37.395Z,30.20
2018-06-05T12:56:05.610Z,30.20
2018-06-05T12:58:33.822Z,30.20
2018-06-05T13:01:02.016Z,30.20
2018-06-05T13:03:30.223Z,30.30
2018-06-05T13:05:58.422Z,30.40
2018-06-05T13:08:26.632Z,30.30
2018-06-05T13:13:22.776Z,30.50
2018-06-05T13:15:50.968Z,30.40
2018-06-05T13:18:19.172Z,30.20
2018-06-05T13:20:47.391Z,29.90
2018-06-05T13:23:15.584Z,29.80
2018-06-05T13:25:43.782Z,29.50
2018-06-05T13:28:11.988Z,29.30
2018-06-05T13:30:40.161Z,29.20
2018-06-05T13:33:08.394Z,29.10
2018-06-05T13:35:36.582Z,29.00
2018-06-05T13:38:04.788Z,28.90
2018-06-05T13:40:32.973Z,29.00
2018-06-05T13:45:29.137Z,29.00
2018-06-05T13:47:57.323Z,29.10
2018-06-05T13:50:25.552Z,29.10
2018-06-05T13:52:53.738Z,29.10
2018-06-05T13:55:21.934Z,28.90
2018-06-05T13:57:50.117Z,28.80
2018-06-05T14:00:18.317Z,28.70
2018-06-05T14:02:46.518Z,28.70
2018-06-05T14:05:14.715Z,28.90
2018-06-05T14:07:42.944Z,28.80
2018-06-05T14:10:11.144Z,28.80
2018-06-05T14:12:39.351Z,28.90
2018-06-05T14:15:07.556Z,28.90
2018-06-05T14:17:35.756Z,28.80
2018-06-05T14:20:03.950Z,28.70
2018-06-05T14:22:32.142Z,28.80
2018-06-05T14:25:00.331Z,28.70
2018-06-05T14:27:28.569Z,28.80
2018-06-05T14:29:56.762Z,28.80
2018-06-05T14:32:25.023Z,28.90
2018-06-05T14:34:53.210Z,28.80
2018-06-05T14:39:49.394Z,29.10
2018-06-05T14:42:17.611Z,29.10
2018-06-05T14:44:45.836Z,29.10
2018-06-05T14:47:14.035Z,29.10
2018-06-05T14:49:42.254Z,29.10
2018-06-05T14:52:10.430Z,29.10
2018-06-05T14:54:38.627Z,28.90
2018-06-05T14:57:06.892Z,28.80
2018-06-05T14:59:35.087Z,28.80
2018-06-05T15:02:03.298Z,28.80
2018-06-05T15:04:31.494Z,28.80
2018-06-05T15:06:59.706Z,28.90
2018-06-05T15:09:27.915Z,28.90
2018-06-05T15:11:56.124Z,29.00
2018-06-05T15:16:52.258Z,29.20
2018-06-05T15:19:20.467Z,29.20
2018-06-05T15:21:48.683Z,29.20
2018-06-05T15:24:16.885Z,29.30
2018-06-05T15:26:45.094Z,29.30
2018-06-05T15:29:13.307Z,29.50
2018-06-05T15:31:41.527Z,29.50
2018-06-05T15:34:09.770Z,29.30
2018-06-05T15:36:37.922Z,29.30
2018-06-05T15:39:08.224Z,29.40
2018-06-05T15:41:36.624Z,29.40
2018-06-05T15:44:04.834Z,29.40
2018-06-05T15:49:00.998Z,29.20
2018-06-05T15:51:29.216Z,29.00
2018-06-05T15:53:57.418Z,28.80
2018-06-05T15:56:25.615Z,28.80
2018-06-05T15:58:53.808Z,28.70
2018-06-05T16:01:22.016Z,28.60
2018-06-05T16:03:50.223Z,28.60
2018-06-05T16:06:18.428Z,28.60
2018-06-05T16:08:46.615Z,28.60
2018-06-05T16:11:14.806Z,28.60
2018-06-05T16:13:43.007Z,28.60
2018-06-05T16:18:39.153Z,28.70
2018-06-05T16:21:07.360Z,28.40
2018-06-05T16:23:35.559Z,28.40
2018-06-05T16:26:03.781Z,28.50
2018-06-05T16:30:59.940Z,28.30
2018-06-05T16:33:28.190Z,28.30
2018-06-05T16:35:56.345Z,28.20
2018-06-05T16:38:24.529Z,28.20
2018-06-05T16:43:20.688Z,28.20
2018-06-05T16:45:48.890Z,28.30
2018-06-05T16:48:17.106Z,28.30
2018-06-05T16:50:45.294Z,28.30
2018-06-05T16:53:13.499Z,28.30
2018-06-05T16:55:41.695Z,28.90
2018-06-05T16:58:09.891Z,28.20
2018-06-05T17:00:38.090Z,28.30
2018-06-05T17:05:34.239Z,28.30
2018-06-05T17:10:30.399Z,28.30
2018-06-05T17:12:58.611Z,28.20
2018-06-05T17:15:26.798Z,28.30
2018-06-05T17:17:55.017Z,28.20
2018-06-05T17:27:47.177Z,28.30
2018-06-05T17:30:15.380Z,28.30
2018-06-05T17:32:43.649Z,28.30
2018-06-05T17:35:11.843Z,28.30
2018-06-05T17:37:40.222Z,28.20
2018-06-05T17:40:08.429Z,28.20
2018-06-05T17:42:36.664Z,28.20
2018-06-05T17:45:04.972Z,28.10
2018-06-05T17:47:33.543Z,28.10
2018-06-05T17:50:01.856Z,28.20
2018-06-05T17:54:58.029Z,28.10
2018-06-05T17:57:26.234Z,28.10
2018-06-05T17:59:54.613Z,28.00
2018-06-05T18:02:22.833Z,28.00
2018-06-05T18:04:51.028Z,27.90
2018-06-05T18:07:19.225Z,27.90
2018-06-05T18:09:47.410Z,27.90
2018-06-05T18:12:15.898Z,27.90
2018-06-05T18:14:44.284Z,27.90
2018-06-05T18:17:12.564Z,27.90
2018-06-05T18:19:40.800Z,27.80
2018-06-05T18:22:08.948Z,27.80
2018-06-05T18:24:37.139Z,27.80
2018-06-05T18:27:05.345Z,27.90
2018-06-05T18:29:33.552Z,27.80
2018-06-05T18:32:01.762Z,27.70
2018-06-05T18:34:29.945Z,27.70
2018-06-05T18:36:58.154Z,27.60
2018-06-05T18:39:26.353Z,27.60
2018-06-05T18:41:54.565Z,27.60
2018-06-05T18:44:22.763Z,27.50
2018-06-05T18:46:50.969Z,27.40
2018-06-05T18:49:19.176Z,27.50
2018-06-05T18:51:47.367Z,27.00
2018-06-05T18:54:15.607Z,27.20
2018-06-05T18:56:43.854Z,27.20
2018-06-05T18:59:11.988Z,26.90
2018-06-05T19:01:40.198Z,26.90
2018-06-05T19:04:08.425Z,26.70
2018-06-05T19:06:36.623Z,26.40
2018-06-05T19:09:07.192Z,26.40
2018-06-05T19:11:35.401Z,26.30
2018-06-05T19:14:03.853Z,26.10
2018-06-05T19:16:32.046Z,25.90
2018-06-05T19:19:00.241Z,25.70
2018-06-05T19:21:28.433Z,25.50
2018-06-05T19:23:56.646Z,25.40
2018-06-05T19:28:52.831Z,25.00
2018-06-05T19:31:21.029Z,24.80
2018-06-05T19:33:49.251Z,24.80
2018-06-05T19:38:45.388Z,24.80
2018-06-05T19:43:41.885Z,24.40
2018-06-05T19:46:10.080Z,24.20
2018-06-05T19:48:38.315Z,24.10
2018-06-05T19:51:06.498Z,23.70
2018-06-05T19:53:34.732Z,23.70
2018-06-05T19:58:30.901Z,23.70
2018-06-05T20:00:59.106Z,23.70
2018-06-05T20:03:27.304Z,23.70
2018-06-05T20:05:55.511Z,23.70
2018-06-05T20:08:23.712Z,23.50
2018-06-05T20:10:51.915Z,23.40
2018-06-05T20:13:20.118Z,23.20
2018-06-05T20:18:16.260Z,22.80
2018-06-05T20:20:44.482Z,22.60
2018-06-05T20:23:12.691Z,22.30
2018-06-05T20:25:41.054Z,22.20
2018-06-05T20:28:09.270Z,22.10
2018-06-05T20:30:37.470Z,22.20
2018-06-05T20:33:05.764Z,22.30
2018-06-05T20:35:33.964Z,22.40
2018-06-05T20:38:11.498Z,22.60
2018-06-05T20:40:44.490Z,22.60
2018-06-05T20:46:04.947Z,22.80
2018-06-05T20:49:18.119Z,22.70
2018-06-05T20:57:23.628Z,22.30
2018-06-05T21:00:10.288Z,22.10
2018-06-05T21:02:58.385Z,22.20
2018-06-05T21:10:44.492Z,22.20
2018-06-05T21:16:01.675Z,22.10
2018-06-05T21:18:31.712Z,22.10
2018-06-05T21:21:01.012Z,22.20
2018-06-05T21:23:29.515Z,22.20
2018-06-05T21:26:02.810Z,22.00
2018-06-05T21:28:38.592Z,21.70
2018-06-05T21:31:07.738Z,21.80
2018-06-05T21:33:36.301Z,21.80
2018-06-05T21:36:07.533Z,21.50
2018-06-05T21:38:37.338Z,21.40
2018-06-05T21:41:06.579Z,21.00
2018-06-05T21:46:06.266Z,21.10
2018-06-05T21:48:35.819Z,21.00
2018-06-05T21:51:04.433Z,21.00
2018-06-05T21:53:33.235Z,21.00
2018-06-05T21:56:01.656Z,20.90
2018-06-05T22:01:00.912Z,21.00
2018-06-05T22:03:33.117Z,21.10
2018-06-05T22:06:01.942Z,21.20
2018-06-05T22:08:30.312Z,18.80
2018-06-05T22:13:27.406Z,20.80
2018-06-05T22:18:25.585Z,20.50
2018-06-05T22:20:54.285Z,20.40
2018-06-05T22:23:22.689Z,20.20
2018-06-05T22:25:52.439Z,20.10
2018-06-05T22:28:21.039Z,20.10
2018-06-05T22:30:50.012Z,20.20
2018-06-05T22:33:19.093Z,19.90
2018-06-05T22:38:15.723Z,20.00
2018-06-05T22:40:44.199Z,20.00
2018-06-05T22:43:13.227Z,20.00
2018-06-05T22:48:10.768Z,19.90
2018-06-05T22:50:39.223Z,20.00
2018-06-05T22:53:07.921Z,20.10
2018-06-05T22:55:36.435Z,20.10
2018-06-05T22:58:05.676Z,20.20
2018-06-05T23:00:38.601Z,20.20
2018-06-05T23:05:39.930Z,20.00
2018-06-05T23:08:10.167Z,20.00
2018-06-05T23:10:40.564Z,19.90
2018-06-05T23:13:15.878Z,19.60
2018-06-05T23:15:44.336Z,19.50
2018-06-05T23:23:30.680Z,19.60
2018-06-05T23:34:12.882Z,19.70
2018-06-05T23:36:45.236Z,19.50
2018-06-05T23:39:21.288Z,19.40
2018-06-05T23:41:57.075Z,19.40
2018-06-05T23:44:29.804Z,19.20
2018-06-05T23:47:08.791Z,19.10
2018-06-05T23:49:46.167Z,19.00
2018-06-05T23:52:19.544Z,18.80
2018-06-05T23:54:51.876Z,18.80
2018-06-05T23:59:48.522Z,18.50
